Time;durP1;ratioP1;P1;durP2;ratioP2;P2;SDS_P1;SDS_P2;PMS_P1;PMS_P2;Temp;Humidity;BMP_temperature;BMP_pressure;BME280_temperature;BME280_humidity;BME280_pressure;Samples;Min_cycle;Max_cycle;Signal;HPM_P1;HPM_P2
2023/06/23 00:01:04;;;;;;;4.57;4.13;;;;;;;18.12;100.00;100394.38;4846837;29;20077;-84
2023/06/23 00:03:31;;;;;;;4.25;3.83;;;;;;;18.14;100.00;100403.97;4844141;29;20041;-85
2023/06/23 00:06:00;;;;;;;5.50;4.18;;;;;;;18.10;100.00;100401.53;4851816;29;20045;-84
2023/06/23 00:08:26;;;;;;;6.15;5.55;;;;;;;18.05;100.00;100406.16;4869439;29;20078;-84
2023/06/23 00:10:53;;;;;;;6.78;4.60;;;;;;;18.04;100.00;100407.94;4867701;29;20513;-85
2023/06/23 00:13:19;;;;;;;4.43;4.00;;;;;;;18.01;100.00;100414.25;4871401;29;20072;-84
2023/06/23 00:15:46;;;;;;;5.13;4.63;;;;;;;18.01;100.00;100416.88;4864861;29;20067;-84
2023/06/23 00:18:13;;;;;;;8.43;4.78;;;;;;;18.01;100.00;100419.53;4849127;29;20045;-84
2023/06/23 00:20:39;;;;;;;7.63;5.22;;;;;;;18.03;100.00;100427.44;4870065;29;20056;-84
2023/06/23 00:23:06;;;;;;;6.57;4.75;;;;;;;18.08;100.00;100427.22;4876242;29;20049;-85
2023/06/23 00:25:32;;;;;;;6.30;4.07;;;;;;;18.11;100.00;100432.41;4858458;29;20076;-85
2023/06/23 00:27:59;;;;;;;7.47;4.60;;;;;;;18.12;100.00;100442.03;4878264;29;20191;-85
2023/06/23 00:30:26;;;;;;;5.95;4.90;;;;;;;18.13;100.00;100441.13;4863011;29;20056;-83
2023/06/23 00:32:53;;;;;;;8.05;5.03;;;;;;;18.10;100.00;100434.16;4842170;29;20061;-85
2023/06/23 00:35:19;;;;;;;5.03;4.15;;;;;;;18.11;100.00;100435.91;4871707;29;20069;-85
2023/06/23 00:37:46;;;;;;;5.00;4.15;;;;;;;18.15;100.00;100437.47;4878238;29;20128;-84
2023/06/23 00:40:12;;;;;;;7.55;4.72;;;;;;;18.18;100.00;100425.88;4847999;29;20049;-84
2023/06/23 00:42:52;;;;;;;6.65;4.53;;;;;;;18.21;100.00;100427.53;4846009;29;20141;-84
2023/06/23 00:45:19;;;;;;;5.30;4.72;;;;;;;18.22;100.00;100431.91;4878302;29;20056;-83
2023/06/23 00:47:47;;;;;;;5.03;4.43;;;;;;;18.20;100.00;100434.63;4862039;29;20505;-84
2023/06/23 00:50:16;;;;;;;7.78;4.57;;;;;;;18.22;100.00;100435.41;4869875;29;20057;-84
2023/06/23 00:52:50;;;;;;;9.18;4.63;;;;;;;18.24;100.00;100435.34;4875327;29;20493;-84
2023/06/23 00:55:25;;;;;;;9.30;5.30;;;;;;;18.26;100.00;100442.28;4853381;29;20053;-84
2023/06/23 00:57:54;;;;;;;6.55;4.30;;;;;;;18.25;100.00;100445.91;4864464;29;20140;-85
2023/06/23 01:00:23;;;;;;;11.07;6.13;;;;;;;18.25;100.00;100445.91;4879531;29;20050;-84
2023/06/23 01:02:59;;;;;;;5.57;4.90;;;;;;;18.26;100.00;100449.41;4852672;29;20459;-84
2023/06/23 01:05:36;;;;;;;6.35;4.50;;;;;;;18.26;100.00;100444.94;4866482;29;20064;-83
2023/06/23 01:08:27;;;;;;;6.90;5.40;;;;;;;18.27;100.00;100445.81;4858011;29;20049;-84
2023/06/23 01:11:28;;;;;;;6.40;5.80;;;;;;;18.24;100.00;100446.81;4861639;29;20054;-84
2023/06/23 01:14:16;;;;;;;12.73;5.88;;;;;;;18.24;100.00;100443.28;4847363;29;20053;-84
2023/06/23 01:16:57;;;;;;;5.78;5.20;;;;;;;18.22;100.00;100445.16;4850955;29;20045;-85
2023/06/23 01:19:35;;;;;;;9.32;5.63;;;;;;;18.23;100.00;100454.84;4860180;29;20066;-85
2023/06/23 01:22:16;;;;;;;6.68;4.95;;;;;;;18.20;100.00;100458.47;4879774;29;20049;-85
2023/06/23 01:25:07;;;;;;;8.63;6.10;;;;;;;18.18;100.00;100473.56;4853650;29;20052;-85
2023/06/23 01:28:10;;;;;;;8.23;5.35;;;;;;;18.18;100.00;100476.22;4875430;29;20041;-85
2023/06/23 01:30:40;;;;;;;7.85;6.10;;;;;;;18.19;100.00;100477.94;4881900;29;20073;-85
2023/06/23 01:33:18;;;;;;;8.85;6.40;;;;;;;18.17;100.00;100480.66;4864735;29;20581;-84
2023/06/23 01:35:57;;;;;;;7.18;5.32;;;;;;;18.17;100.00;100475.38;4851159;29;20098;-85
2023/06/23 01:38:32;;;;;;;6.70;6.03;;;;;;;18.17;100.00;100472.72;4837799;29;20050;-84
2023/06/23 01:41:01;;;;;;;9.45;6.03;;;;;;;18.21;100.00;100472.56;4865875;29;20041;-83
2023/06/23 01:43:30;;;;;;;7.90;5.78;;;;;;;18.21;100.00;100472.56;4858588;29;20074;-84
2023/06/23 01:46:05;;;;;;;12.95;7.03;;;;;;;18.17;100.00;100475.38;4862891;29;20049;-84
2023/06/23 01:48:35;;;;;;;8.82;7.00;;;;;;;18.18;100.00;100468.28;4859251;29;20135;-84
2023/06/23 01:51:04;;;;;;;7.30;6.25;;;;;;;18.14;100.00;100469.34;4864335;29;20053;-84
2023/06/23 01:53:33;;;;;;;13.68;8.00;;;;;;;18.14;100.00;100483.44;4869606;29;20049;-84
2023/06/23 01:56:05;;;;;;;9.15;7.25;;;;;;;18.14;100.00;100477.28;4865324;29;20144;-86
2023/06/23 01:58:34;;;;;;;6.73;6.00;;;;;;;18.14;100.00;100480.78;4838747;29;20137;-85
2023/06/23 02:01:01;;;;;;;7.72;6.18;;;;;;;18.12;100.00;100474.72;4847364;29;20061;-86
2023/06/23 02:03:29;;;;;;;6.82;6.13;;;;;;;18.13;100.00;100476.44;4871452;29;20407;-85
2023/06/23 02:05:57;;;;;;;8.00;6.85;;;;;;;18.15;100.00;100463.97;4862608;29;20140;-85
2023/06/23 02:08:26;;;;;;;7.70;6.45;;;;;;;18.16;100.00;100462.16;4879969;29;20045;-84
2023/06/23 02:10:56;;;;;;;9.30;6.25;;;;;;;18.18;100.00;100471.78;4852225;29;20108;-85
2023/06/23 02:13:27;;;;;;;8.95;6.72;;;;;;;18.21;100.00;100468.13;4870193;29;20530;-85
2023/06/23 02:15:54;;;;;;;7.88;7.07;;;;;;;18.18;100.00;100476.22;4850605;29;20061;-86
2023/06/23 02:18:21;;;;;;;9.07;7.80;;;;;;;18.16;100.00;100460.41;4881992;29;20055;-86
2023/06/23 02:20:51;;;;;;;8.98;8.18;;;;;;;18.16;100.00;100473.66;4852511;29;20057;-85
2023/06/23 02:23:19;;;;;;;9.35;8.45;;;;;;;18.15;100.00;100481.66;4856422;29;20059;-85
2023/06/23 02:25:46;;;;;;;11.50;9.27;;;;;;;18.10;100.00;100478.34;4849881;29;20703;-86
2023/06/23 02:28:13;;;;;;;9.70;8.73;;;;;;;18.06;100.00;100474.97;4864384;29;20057;-86
2023/06/23 02:30:43;;;;;;;12.77;9.57;;;;;;;17.98;100.00;100477.94;4851115;29;20045;-86
2023/06/23 02:33:09;;;;;;;17.88;10.35;;;;;;;17.91;100.00;100470.28;4866282;29;20055;-87
2023/06/23 02:35:36;;;;;;;13.07;10.50;;;;;;;17.83;100.00;100471.50;4847418;29;20041;-87
2023/06/23 02:38:05;;;;;;;13.70;11.05;;;;;;;17.77;100.00;100469.09;4877723;29;20045;-86
2023/06/23 02:40:35;;;;;;;13.43;10.93;;;;;;;17.72;100.00;100467.53;4863352;29;20053;-86
2023/06/23 02:43:22;;;;;;;13.38;12.20;;;;;;;17.70;100.00;100475.56;4860648;29;20048;-86
2023/06/23 02:45:52;;;;;;;16.60;13.45;;;;;;;17.65;100.00;100470.47;4855273;29;20063;-87
2023/06/23 02:48:23;;;;;;;16.20;12.80;;;;;;;17.62;100.00;100469.72;4854294;29;20037;-88
2023/06/23 02:50:51;;;;;;;23.55;14.52;;;;;;;17.55;100.00;100470.88;4867934;29;20053;-87
2023/06/23 02:53:24;;;;;;;17.45;14.38;;;;;;;17.49;100.00;100467.56;4865637;29;20076;-87
2023/06/23 02:56:06;;;;;;;18.08;15.13;;;;;;;17.46;100.00;100472.16;4861519;29;20539;-87
2023/06/23 02:58:34;;;;;;;16.77;15.02;;;;;;;17.41;100.00;100464.38;4857605;29;20090;-90
2023/06/23 03:01:02;;;;;;;18.30;16.38;;;;;;;17.39;100.00;100468.91;4867792;29;20045;-87
2023/06/23 03:03:33;;;;;;;20.40;18.27;;;;;;;17.38;100.00;100469.81;4863671;29;20093;-89
2023/06/23 03:06:00;;;;;;;19.38;17.30;;;;;;;17.35;100.00;100470.78;4844553;29;20049;-91
2023/06/23 03:08:26;;;;;;;20.50;18.13;;;;;;;17.32;100.00;100470.91;4872920;29;20401;-90
2023/06/23 03:10:54;;;;;;;18.50;16.27;;;;;;;17.29;100.00;100478.97;4869784;29;20044;-89
2023/06/23 03:13:22;;;;;;;20.98;17.95;;;;;;;17.29;100.00;100468.38;4850725;29;20139;-90
2023/06/23 03:15:55;;;;;;;25.20;19.15;;;;;;;17.33;100.00;100477.06;4852855;29;20137;-89
2023/06/23 03:18:26;;;;;;;23.20;20.17;;;;;;;17.34;100.00;100476.16;4865194;29;20069;-91
2023/06/23 03:20:53;;;;;;;20.88;18.60;;;;;;;17.33;100.00;100472.63;4866332;29;20192;-91
2023/06/23 03:23:24;;;;;;;20.90;18.85;;;;;;;17.33;100.00;100466.50;4866638;29;20591;-91
2023/06/23 03:25:51;;;;;;;23.95;21.08;;;;;;;17.35;100.00;100475.22;4861781;29;20052;-91
2023/06/23 03:28:25;;;;;;;25.27;19.98;;;;;;;17.34;100.00;100471.72;4872805;29;20153;-91
2023/06/23 03:31:01;;;;;;;26.73;20.58;;;;;;;17.33;100.00;100477.06;4846352;29;20679;-91
2023/06/23 03:33:34;;;;;;;21.88;19.67;;;;;;;17.32;100.00;100480.63;4870611;29;20072;-90
2023/06/23 03:36:12;;;;;;;;;;;;;;;17.31;100.00;100478.91;4844043;29;20531;-90
2023/06/23 03:38:58;;;;;;;23.65;19.10;;;;;;;17.24;100.00;100483.56;4869739;29;19940;-89
2023/06/23 03:41:29;;;;;;;22.50;19.25;;;;;;;17.20;100.00;100480.19;4864303;29;20160;-91
2023/06/23 03:44:00;;;;;;;26.63;19.02;;;;;;;17.18;100.00;100492.63;4864974;29;20553;-90
2023/06/23 03:46:49;;;;;;;24.17;21.52;;;;;;;17.19;100.00;100499.66;4871575;29;20052;-92
2023/06/23 03:49:16;;;;;;;22.23;18.70;;;;;;;17.18;100.00;100502.31;4849636;29;20053;-92
2023/06/23 03:51:47;;;;;;;21.88;18.45;;;;;;;17.19;100.00;100506.69;4855024;29;20049;-89
2023/06/23 03:54:16;;;;;;;28.20;21.15;;;;;;;17.17;100.00;100514.72;4859799;29;20057;-91
2023/06/23 03:56:44;;;;;;;22.88;20.38;;;;;;;17.16;100.00;100520.91;4853842;29;20045;-91
2023/06/23 03:59:13;;;;;;;25.08;20.90;;;;;;;17.13;100.00;100513.09;4862678;29;20103;-92
2023/06/23 04:01:42;;;;;;;24.88;21.13;;;;;;;17.18;100.00;100524.38;4854878;29;20059;-92
2023/06/23 04:04:11;;;;;;;23.48;20.70;;;;;;;17.23;100.00;100521.53;4885146;29;20097;-88
2023/06/23 04:06:40;;;;;;;23.85;20.17;;;;;;;17.29;100.00;100525.75;4868768;29;20057;-89
2023/06/23 04:09:08;;;;;;;22.02;19.65;;;;;;;17.24;100.00;100523.25;4866293;29;20532;-88
2023/06/23 04:11:37;;;;;;;25.02;21.10;;;;;;;17.25;100.00;100535.56;4868669;29;20049;-88
2023/06/23 04:14:06;;;;;;;22.90;20.08;;;;;;;17.21;100.00;100533.97;4846982;29;20056;-89
2023/06/23 04:16:40;;;;;;;22.50;19.92;;;;;;;17.18;100.00;100542.88;4857519;29;20043;-90
2023/06/23 04:19:09;;;;;;;22.50;20.13;;;;;;;17.18;100.00;100540.25;4861009;29;20135;-89
2023/06/23 04:21:38;;;;;;;23.38;19.92;;;;;;;17.15;100.00;100545.63;4839904;29;20045;-89
2023/06/23 04:24:25;;;;;;;20.05;17.95;;;;;;;17.11;100.00;100548.47;4876925;29;20072;-90
2023/06/23 04:26:55;;;;;;;18.10;16.20;;;;;;;17.13;100.00;100552.78;4866631;29;20726;-90
2023/06/23 04:29:25;;;;;;;23.95;19.30;;;;;;;17.16;100.00;100557.94;4877118;29;20404;-88
2023/06/23 04:31:58;;;;;;;19.92;17.15;;;;;;;17.13;100.00;100558.06;4865956;29;20045;-90
2023/06/23 04:34:25;;;;;;;14.87;13.47;;;;;;;17.11;100.00;100565.19;4852039;29;20409;-91
2023/06/23 04:37:18;;;;;;;14.77;13.13;;;;;;;17.10;100.00;100570.53;4850344;29;20049;-89
2023/06/23 04:40:12;;;;;;;8.25;7.43;;;;;;;17.01;100.00;100574.38;4864321;29;20072;-89
2023/06/23 04:42:53;;;;;;;6.45;5.80;;;;;;;16.95;100.00;100579.91;4876223;29;20419;-89
2023/06/23 04:45:25;;;;;;;5.00;4.60;;;;;;;16.86;100.00;100586.38;4873466;29;20053;-91
2023/06/23 04:48:03;;;;;;;5.75;5.03;;;;;;;16.87;100.00;100585.44;4847541;29;20149;-92
2023/06/23 04:50:32;;;;;;;4.97;3.88;;;;;;;16.84;100.00;100599.66;4856988;29;20105;-88
2023/06/23 04:53:13;;;;;;;3.60;3.38;;;;;;;16.83;100.00;100589.09;4850759;29;20059;-90
2023/06/23 04:55:43;;;;;;;4.28;3.95;;;;;;;16.81;100.00;100601.53;4853992;29;20053;-89
2023/06/23 04:58:12;;;;;;;3.63;3.30;;;;;;;16.82;100.00;100609.41;4862401;29;20053;-84
2023/06/23 05:00:40;;;;;;;4.80;3.10;;;;;;;16.71;100.00;100608.91;4849499;29;20057;-84
2023/06/23 05:03:08;;;;;;;3.35;3.03;;;;;;;16.62;100.00;100614.53;4840533;29;20135;-86
2023/06/23 05:05:37;;;;;;;3.17;2.78;;;;;;;16.57;100.00;100608.53;4862738;29;20136;-83
2023/06/23 05:08:05;;;;;;;2.50;2.30;;;;;;;16.41;100.00;100610.84;4836439;29;20049;-83
2023/06/23 05:10:34;;;;;;;2.90;2.50;;;;;;;16.31;100.00;100620.84;4853620;29;20053;-83
2023/06/23 05:13:03;;;;;;;2.83;2.63;;;;;;;16.24;100.00;100625.47;4865660;29;20072;-84
2023/06/23 05:15:30;;;;;;;6.82;3.17;;;;;;;16.21;100.00;100636.16;4880773;29;20450;-83
2023/06/23 05:17:59;;;;;;;3.55;3.25;;;;;;;16.21;100.00;100644.06;4844905;29;20148;-84
2023/06/23 05:20:27;;;;;;;3.50;3.28;;;;;;;16.13;100.00;100648.75;4845452;29;20811;-84
2023/06/23 05:22:58;;;;;;;3.83;3.53;;;;;;;16.09;100.00;100655.88;4847070;29;20064;-82
2023/06/23 05:25:29;;;;;;;3.30;2.95;;;;;;;16.05;100.00;100664.81;4841756;29;20130;-83
2023/06/23 05:28:00;;;;;;;3.33;3.03;;;;;;;16.04;100.00;100669.22;4843743;29;20094;-87
2023/06/23 05:30:28;;;;;;;3.90;3.55;;;;;;;16.06;100.00;100682.41;4864179;29;20603;-82
2023/06/23 05:32:57;;;;;;;3.95;3.63;;;;;;;16.04;100.00;100676.28;4857278;29;20092;-83
2023/06/23 05:35:25;;;;;;;3.95;3.55;;;;;;;16.03;100.00;100686.00;4863988;29;20069;-83
2023/06/23 05:37:52;;;;;;;3.95;3.60;;;;;;;16.06;100.00;100689.44;4870593;29;20076;-83
2023/06/23 05:40:19;;;;;;;5.18;3.55;;;;;;;16.10;100.00;100697.25;4875634;29;20502;-83
2023/06/23 05:42:46;;;;;;;3.58;3.03;;;;;;;16.08;100.00;100704.31;4845222;29;20052;-84
2023/06/23 05:45:13;;;;;;;3.38;2.63;;;;;;;16.03;100.00;100707.13;4861506;29;20061;-83
2023/06/23 05:47:56;;;;;;;3.88;3.10;;;;;;;15.98;100.00;100721.38;4855033;29;20129;-83
2023/06/23 05:50:28;;;;;;;3.72;3.42;;;;;;;15.97;100.00;100727.53;4858742;29;20073;-83
2023/06/23 05:53:02;;;;;;;4.35;3.85;;;;;;;15.85;100.00;100737.59;4848241;29;20053;-82
2023/06/23 05:55:30;;;;;;;4.57;3.92;;;;;;;15.81;100.00;100743.88;4865403;29;20045;-82
2023/06/23 05:58:01;;;;;;;5.15;3.92;;;;;;;15.76;100.00;100756.31;4846229;29;20052;-82
2023/06/23 06:00:35;;;;;;;4.85;3.50;;;;;;;15.77;100.00;100758.00;4879134;29;20101;-86
2023/06/23 06:03:07;;;;;;;3.85;3.17;;;;;;;15.75;100.00;100770.41;4848947;29;20106;-82
2023/06/23 06:05:45;;;;;;;6.70;4.43;;;;;;;15.77;100.00;100771.19;4845592;29;20405;-83
2023/06/23 06:08:12;;;;;;;5.60;3.80;;;;;;;15.74;100.00;100775.72;4865368;29;20049;-85
2023/06/23 06:10:40;;;;;;;4.20;3.70;;;;;;;15.65;100.00;100785.63;4858083;29;20094;-84
2023/06/23 06:13:08;;;;;;;3.78;3.45;;;;;;;15.61;100.00;100788.41;4865525;29;20041;-87
2023/06/23 06:15:37;;;;;;;3.90;3.47;;;;;;;15.53;100.00;100797.38;4857415;29;20045;-82
2023/06/23 06:18:07;;;;;;;4.22;3.83;;;;;;;15.44;100.00;100796.78;4851273;29;20434;-84
2023/06/23 06:20:36;;;;;;;5.53;4.18;;;;;;;15.43;100.00;100816.16;4845978;29;20423;-84
2023/06/23 06:23:05;;;;;;;7.85;4.30;;;;;;;15.37;100.00;100825.09;4859837;29;20136;-82
2023/06/23 06:25:36;;;;;;;7.43;4.32;;;;;;;15.33;100.00;100831.34;4859474;29;20049;-85
2023/06/23 06:28:10;;;;;;;5.47;4.97;;;;;;;15.33;100.00;100844.53;4846315;29;20053;-82
2023/06/23 06:30:38;;;;;;;6.97;5.00;;;;;;;15.34;100.00;100843.63;4864042;29;20390;-83
2023/06/23 06:33:05;;;;;;;6.97;5.25;;;;;;;15.27;100.00;100865.81;4859342;29;20082;-83
2023/06/23 06:35:34;;;;;;;9.68;6.95;;;;;;;15.17;100.00;100868.63;4835072;29;20049;-83
2023/06/23 06:38:03;;;;;;;6.70;6.00;;;;;;;15.11;100.00;100895.19;4841208;29;20666;-84
2023/06/23 06:40:31;;;;;;;7.85;6.03;;;;;;;15.11;100.00;100878.47;4862235;29;20513;-84
2023/06/23 06:42:57;;;;;;;7.85;6.32;;;;;;;15.08;100.00;100904.91;4842933;29;20081;-84
2023/06/23 06:45:24;;;;;;;7.85;6.30;;;;;;;15.04;100.00;100906.75;4843370;29;20056;-82
2023/06/23 06:47:54;;;;;;;8.88;5.68;;;;;;;14.99;100.00;100911.28;4857008;29;20049;-83
2023/06/23 06:50:22;;;;;;;6.35;5.75;;;;;;;14.97;100.00;100936.81;4875730;29;20049;-86
2023/06/23 06:52:50;;;;;;;7.75;6.00;;;;;;;14.97;100.00;100942.09;4873476;29;20105;-84
2023/06/23 06:55:19;;;;;;;8.68;6.15;;;;;;;14.94;100.00;100945.66;4846015;29;20056;-87
2023/06/23 06:57:47;;;;;;;6.10;5.30;;;;;;;14.92;100.00;100951.88;4875830;29;20128;-86
2023/06/23 07:00:20;;;;;;;5.97;5.40;;;;;;;14.86;100.00;100966.03;4845042;29;20053;-85
2023/06/23 07:02:47;;;;;;;8.27;5.80;;;;;;;14.92;100.00;100970.31;4844437;29;20054;-85
2023/06/23 07:05:16;;;;;;;9.82;6.28;;;;;;;14.91;100.00;100974.69;4857574;29;20058;-85
2023/06/23 07:07:43;;;;;;;6.65;6.00;;;;;;;14.97;100.00;100992.19;4859221;29;20046;-85
2023/06/23 07:10:10;;;;;;;6.93;6.10;;;;;;;14.97;100.00;101000.09;4877667;29;20398;-88
2023/06/23 07:12:37;;;;;;;8.02;6.25;;;;;;;14.98;100.00;101007.06;4861565;29;20059;-86
2023/06/23 07:15:04;;;;;;;7.10;6.35;;;;;;;14.97;100.00;101011.47;4846306;29;20060;-86
2023/06/23 07:17:30;;;;;;;6.90;6.15;;;;;;;14.95;100.00;101007.16;4862587;29;20148;-86
2023/06/23 07:19:57;;;;;;;8.30;7.22;;;;;;;15.01;100.00;101015.78;4863503;29;20684;-85
2023/06/23 07:22:23;;;;;;;7.95;6.70;;;;;;;15.04;100.00;101014.84;4844516;29;20038;-86
2023/06/23 07:24:50;;;;;;;8.13;6.93;;;;;;;15.03;100.00;101028.94;4872923;29;20076;-85
2023/06/23 07:27:18;;;;;;;8.70;6.97;;;;;;;15.06;100.00;101023.59;4849283;29;20053;-85
2023/06/23 07:29:45;;;;;;;8.48;6.90;;;;;;;15.05;100.00;101038.53;4847194;29;20045;-85
2023/06/23 07:32:14;;;;;;;9.75;8.10;;;;;;;15.08;100.00;101050.78;4848132;29;20053;-85
2023/06/23 07:34:41;;;;;;;9.80;7.03;;;;;;;15.11;100.00;101049.84;4849529;29;20057;-86
2023/06/23 07:37:09;;;;;;;9.00;7.80;;;;;;;15.08;100.00;101048.16;4867531;29;20137;-86
2023/06/23 07:39:37;;;;;;;10.77;9.05;;;;;;;15.08;100.00;101063.13;4865512;29;20042;-86
2023/06/23 07:42:05;;;;;;;10.52;7.95;;;;;;;15.15;100.00;101076.16;4863409;29;20053;-87
2023/06/23 07:44:32;;;;;;;8.88;8.00;;;;;;;15.17;100.00;101062.91;4861258;29;20050;-87
2023/06/23 07:47:00;;;;;;;8.40;7.50;;;;;;;15.17;100.00;101070.84;4854416;29;20061;-85
2023/06/23 07:49:30;;;;;;;12.38;8.75;;;;;;;15.19;100.00;101069.91;4869649;29;20045;-85
2023/06/23 07:52:00;;;;;;;9.73;8.73;;;;;;;15.23;100.00;101075.97;4876110;29;20064;-84
2023/06/23 07:54:32;;;;;;;10.68;8.05;;;;;;;15.27;100.00;101076.78;4866990;29;20088;-86
2023/06/23 07:57:01;;;;;;;12.23;9.48;;;;;;;15.32;100.00;101077.56;4856551;29;20125;-87
2023/06/23 07:59:31;;;;;;;12.18;9.90;;;;;;;15.35;100.00;101085.41;4852890;29;20060;-87
2023/06/23 08:02:01;;;;;;;9.30;8.40;;;;;;;15.36;100.00;101087.13;4854310;29;20049;-85
2023/06/23 08:04:28;;;;;;;12.65;9.50;;;;;;;15.32;100.00;101086.31;4854371;29;20561;-87
2023/06/23 08:06:55;;;;;;;13.20;9.60;;;;;;;15.34;100.00;101094.19;4854690;29;20060;-85
2023/06/23 08:09:22;;;;;;;12.73;10.25;;;;;;;15.36;100.00;101097.69;4864729;29;20069;-86
2023/06/23 08:11:49;;;;;;;10.52;9.32;;;;;;;15.34;100.00;101108.28;4848773;29;20063;-87
2023/06/23 08:14:15;;;;;;;11.57;10.15;;;;;;;15.34;100.00;101117.94;4881988;29;20666;-85
2023/06/23 08:16:43;;;;;;;13.45;9.57;;;;;;;15.35;100.00;101124.97;4846509;29;20045;-87
2023/06/23 08:19:13;;;;;;;11.32;9.85;;;;;;;15.38;100.00;101123.13;4881009;29;20105;-88
2023/06/23 08:21:39;;;;;;;10.63;9.52;;;;;;;15.39;100.00;101124.00;4871836;29;20044;-87
2023/06/23 08:24:09;;;;;;;13.38;9.88;;;;;;;15.39;100.00;101132.75;4853925;29;20183;-86
2023/06/23 08:26:36;;;;;;;12.38;9.63;;;;;;;15.39;100.00;101145.09;4854318;29;20609;-85
2023/06/23 08:29:03;;;;;;;12.60;9.88;;;;;;;15.42;100.00;101152.94;4863439;29;20515;-84
2023/06/23 08:31:29;;;;;;;14.00;9.93;;;;;;;15.43;100.00;101154.69;4866917;29;20068;-85
2023/06/23 08:33:57;;;;;;;12.18;9.48;;;;;;;15.43;100.00;101169.66;4879649;29;20040;-87
2023/06/23 08:36:24;;;;;;;11.05;9.48;;;;;;;15.39;100.00;101172.31;4848768;29;20049;-85
2023/06/23 08:38:51;;;;;;;13.15;9.95;;;;;;;15.44;100.00;101180.16;4876078;29;20143;-85
2023/06/23 08:41:22;;;;;;;10.80;9.27;;;;;;;15.50;100.00;101176.53;4885419;29;20044;-87
2023/06/23 08:43:54;;;;;;;11.82;8.52;;;;;;;15.49;100.00;101185.34;4853736;29;20104;-86
2023/06/23 08:46:31;;;;;;;12.38;8.80;;;;;;;15.50;100.00;101189.72;4878895;29;20065;-86
2023/06/23 08:49:04;;;;;;;11.85;8.90;;;;;;;15.50;100.00;101195.88;4864726;29;20121;-86
2023/06/23 08:51:31;;;;;;;11.38;9.25;;;;;;;15.54;100.00;101197.53;4862479;29;20139;-87
2023/06/23 08:54:03;;;;;;;12.02;9.10;;;;;;;15.54;100.00;101204.59;4855905;29;20091;-87
2023/06/23 08:56:42;;;;;;;12.52;9.95;;;;;;;15.56;100.00;101200.16;4850933;29;20049;-87
2023/06/23 08:59:15;;;;;;;11.20;9.43;;;;;;;15.59;100.00;101208.00;4861411;29;20077;-86
2023/06/23 09:01:42;;;;;;;11.52;10.23;;;;;;;15.58;100.00;101213.31;4855660;29;20407;-86
2023/06/23 09:04:11;;;;;;;12.80;9.82;;;;;;;15.59;100.00;101215.03;4871272;29;20049;-86
2023/06/23 09:06:42;;;;;;;9.57;8.25;;;;;;;15.56;100.00;101218.63;4874318;29;20091;-87
2023/06/23 09:09:16;;;;;;;12.65;9.13;;;;;;;15.55;100.00;101223.03;4874392;29;20052;-87
2023/06/23 09:11:53;;;;;;;8.75;7.75;;;;;;;15.56;100.00;101229.16;4868117;29;20181;-86
2023/06/23 09:14:23;;;;;;;8.90;7.97;;;;;;;15.52;100.00;101238.06;4850298;29;20068;-86
2023/06/23 09:16:56;;;;;;;11.48;8.23;;;;;;;15.51;100.00;101241.59;4874786;29;20058;-87
2023/06/23 09:19:27;;;;;;;8.87;7.83;;;;;;;15.49;100.00;101241.63;4877208;29;20145;-87
2023/06/23 09:22:03;;;;;;;9.43;7.72;;;;;;;15.45;100.00;101242.59;4878266;29;20063;-86
2023/06/23 09:24:46;;;;;;;9.27;8.30;;;;;;;15.45;100.00;101247.88;4869032;29;20048;-87
2023/06/23 09:27:15;;;;;;;9.23;7.85;;;;;;;15.46;100.00;101252.25;4875737;29;20064;-86
2023/06/23 09:30:01;;;;;;;11.45;8.77;;;;;;;15.48;100.00;101254.84;4856759;29;20041;-87
2023/06/23 09:32:31;;;;;;;8.48;7.22;;;;;;;15.46;100.00;101254.00;4875969;29;20056;-87
2023/06/23 09:35:01;;;;;;;11.75;7.70;;;;;;;15.42;100.00;101260.25;4858043;29;20052;-86
2023/06/23 09:37:38;;;;;;;11.05;7.47;;;;;;;15.42;100.00;101260.25;4878038;29;20104;-86
2023/06/23 09:40:10;;;;;;;7.72;6.68;;;;;;;15.39;100.00;101256.75;4875279;29;20049;-87
2023/06/23 09:42:51;;;;;;;7.30;6.28;;;;;;;15.36;100.00;101264.72;4856589;29;20174;-87
2023/06/23 09:45:18;;;;;;;9.48;7.40;;;;;;;15.38;100.00;101278.78;4869503;29;20053;-86
2023/06/23 09:47:50;;;;;;;9.80;7.78;;;;;;;15.41;100.00;101272.56;4865133;29;20044;-84
2023/06/23 09:50:25;;;;;;;11.77;8.48;;;;;;;15.43;100.00;101281.31;4871077;29;20684;-86
2023/06/23 09:53:12;;;;;;;12.93;8.30;;;;;;;15.48;100.00;101283.88;4855816;29;20060;-86
2023/06/23 09:55:40;;;;;;;15.50;8.23;;;;;;;15.47;100.00;101283.00;4870133;29;20143;-85
2023/06/23 09:58:10;;;;;;;9.88;8.02;;;;;;;15.49;100.00;101286.47;4891068;29;20075;-85
2023/06/23 10:00:37;;;;;;;9.50;8.15;;;;;;;15.51;100.00;101289.09;4871441;29;20049;-86
2023/06/23 10:03:08;;;;;;;10.95;8.35;;;;;;;15.50;100.00;101288.22;4861135;29;20154;-87
2023/06/23 10:05:37;;;;;;;11.23;8.55;;;;;;;15.52;100.00;101290.81;4869151;29;20065;-87
2023/06/23 10:08:16;;;;;;;9.48;8.00;;;;;;;15.53;100.00;101292.56;4852956;29;20055;-86
2023/06/23 10:10:49;;;;;;;13.73;8.00;;;;;;;15.56;100.00;101295.13;4857750;29;20121;-87
2023/06/23 10:13:19;;;;;;;13.13;8.75;;;;;;;15.56;100.00;101295.13;4880583;29;20044;-86
2023/06/23 10:15:49;;;;;;;13.88;8.70;;;;;;;15.58;100.00;101306.56;4873582;29;20070;-85
2023/06/23 10:18:24;;;;;;;10.07;7.72;;;;;;;15.57;100.00;101306.59;4864022;29;20056;-86
2023/06/23 10:20:52;;;;;;;10.93;8.43;;;;;;;15.58;100.00;101311.81;4858219;29;20041;-86
2023/06/23 10:23:21;;;;;;;10.60;8.43;;;;;;;15.59;100.00;101312.69;4862417;29;20087;-86
2023/06/23 10:25:54;;;;;;;12.27;8.57;;;;;;;15.63;100.00;101320.53;4872707;29;20652;-86
2023/06/23 10:28:23;;;;;;;14.30;9.68;;;;;;;15.65;100.00;101317.84;4858508;29;20052;-87
2023/06/23 10:30:51;;;;;;;12.55;9.85;;;;;;;15.66;100.00;101320.47;4857211;29;20048;-86
2023/06/23 10:33:24;;;;;;;12.20;10.48;;;;;;;15.70;100.00;101322.13;4859201;29;20105;-86
2023/06/23 10:35:54;;;;;;;15.35;11.05;;;;;;;15.78;100.00;101329.91;4867733;29;20078;-86
2023/06/23 10:38:24;;;;;;;13.52;9.38;;;;;;;15.78;100.00;101332.53;4865023;29;20108;-86
2023/06/23 10:40:52;;;;;;;12.73;10.45;;;;;;;15.78;100.00;101329.91;4873872;29;20045;-86
2023/06/23 10:43:30;;;;;;;14.77;10.30;;;;;;;15.81;100.00;101345.72;4875702;29;20045;-86
2023/06/23 10:45:57;;;;;;;13.98;10.63;;;;;;;15.85;100.00;101342.13;4869981;29;20363;-86
2023/06/23 10:48:25;;;;;;;11.90;9.38;;;;;;;15.85;100.00;101342.13;4865449;29;20088;-85
2023/06/23 10:50:53;;;;;;;13.48;10.05;;;;;;;15.88;100.00;101357.91;4862052;29;20049;-85
2023/06/23 10:53:28;;;;;;;15.25;12.25;;;;;;;15.88;100.00;101347.34;4857823;29;20075;-85
2023/06/23 10:55:58;;;;;;;14.00;9.90;;;;;;;15.96;100.00;101355.09;4858777;29;20048;-86
2023/06/23 10:58:26;;;;;;;11.68;10.32;;;;;;;16.05;100.00;101361.97;4886890;29;20531;-86
2023/06/23 11:00:55;;;;;;;11.18;9.88;;;;;;;16.11;100.00;101358.34;4876253;29;20104;-86
2023/06/23 11:03:30;;;;;;;12.02;10.00;;;;;;;16.18;100.00;101366.09;4874838;29;20083;-86
2023/06/23 11:06:08;;;;;;;15.93;10.93;;;;;;;16.18;100.00;101362.59;4869140;29;20189;-86
2023/06/23 11:08:42;;;;;;;12.25;10.73;;;;;;;16.22;100.00;101366.91;4875174;29;20038;-86
2023/06/23 11:11:15;;;;;;;16.85;12.50;;;;;;;16.27;100.00;101380.88;4861151;29;20061;-85
2023/06/23 11:13:51;;;;;;;15.98;11.93;;;;;;;16.32;100.00;101386.06;4865539;29;20045;-87
2023/06/23 11:16:34;;;;;;;17.48;12.07;;;;;;;16.33;100.00;101380.75;4874609;29;20841;-87
2023/06/23 11:19:02;;;;;;;15.32;12.50;;;;;;;16.36;100.00;101378.06;4875561;29;20065;-86
2023/06/23 11:21:41;;;;;;;17.58;13.93;;;;;;;16.45;100.00;101384.91;4865660;29;20049;-86
2023/06/23 11:24:18;;;;;;;16.58;14.35;;;;;;;16.51;100.00;101390.03;4859485;29;20068;-86
2023/06/23 11:27:03;;;;;;;17.23;14.63;;;;;;;16.55;100.00;101393.50;4873242;29;20048;-86
2023/06/23 11:29:34;;;;;;;23.23;15.38;;;;;;;16.60;100.00;101398.69;4867548;29;20048;-87